Dillon, CO (80435)

10:11 AM MDT on June 27, 2017 (GMT -0600)
Dillon | | Change Station
Active Advisory: Fire Weather Warning

Elev 9286 ft 39.64 °N, 106.04 °W | Updated 3 minutes ago

Clear
Clear
72.1 °F
Feels Like 76 °F
N
1.0
Wind Variable Wind from West

Today
High -- | Low -- °F
--% Chance of Precip.
Yesterday
High -- | Low -- °F
Precip. -- in
Pressure 29.81 in
Visibility 10.0 miles
Clouds Clear
Heat Index 76 °F
Dew Point 35 °F
Humidity 25%
Rainfall 0.00 in
Snow Depth Not available.
5:38 AM 8:35 PM
Waxing Crescent, 17% visible
METAR KLXV 271553Z AUTO 18006KT 10SM CLR 16/M01 A3035 RMK AO2 SLP092 T01611011
Pressure 29.81 in
Visibility 10.0 miles
Clouds Clear
Heat Index 76 °F
Dew Point 35 °F
Humidity 25%
Rainfall 0.00 in
Snow Depth Not available.
5:38 AM 8:35 PM
Waxing Crescent, 17% visible
METAR KLXV 271553Z AUTO 18006KT 10SM CLR 16/M01 A3035 RMK AO2 SLP092 T01611011

Get Your Daily Forecast Email!

Thanks for signing up!

Be on the lookout for a verification email in your inbox.

You'll start receiving severe weather alerts in your inbox..

×

10-Day Weather Forecast

Almanac

Astronomy

Jun. 27, 2017 Rise Set
Actual Time
Civil Twilight
Nautical Twilight
Astronomical Twilight
Moon
Length of Visible Light
Length of Day
Tomorrow will be .
, % of the Moon is Illuminated

Today's Extremes

State Highs State Lows

Community

WunderPhotos

Category 6

Welcome to Category 6. This is the collective home for Weather Underground's featured writeups by Dr. Jeff Masters (right), Bob Henson (left), Chris Burt, and other regular contributors.

Nearby

Air Quality

  Air Quality AQ Index Pollutant
Not available.

Snow Depth

Station Depth Elevation

Earthquake Activity

City Distance Mag. Time & Date
Minimum magnitude displayed is 2.5.

Coastal Water Temperatures

Place Temperature

Stations

Nearby Weather Stations

Station Location Temp. Windchill Dew Point Humidity Wind Precip. Elev Updated Type
                   

Watches & Warnings

Fire Weather Warning
Issued: 4:03 AM MDT Jun. 27, 2017 – National Weather Service

... Red flag warning remains in effect from noon today to 9 PM MDT
this evening for gusty winds and low relative humidity for fire
weather zones 211... 213... and 214...

* affected area... fire weather zones 211... 213 and 214.

* Timing... noon through 9 PM today.

* Winds... west 15 to 25 mph with gusts up to 40 mph.

* Relative humidity... 10 to 15 percent.

* Impacts... gusty winds and low relative humidity will result in
critical fire weather conditions.

Precautionary/preparedness actions...

A red flag warning means that critical fire weather conditions
are either occurring now... .or will shortly. A combination of
strong winds... low relative humidity... and warm temperatures can
contribute to extreme fire behavior.